Latest Coastal Weather Observations for Yanakie

IDV60701

Issued at 8:11 pm EST Thursday 30 May 2024 (issued every 10 minutes, with the page automatically refreshed every 10 minutes)

About coastal observations | Map of coastal stations | Coastal observations for VIC | Marine services | Other Formats
Station Details ID: 085301 Name: YANAKIE Lat: -38.81 Lon: 146.19 Height: 13.3 m
Data from the previous 72 hours. | See also: Recent months at Yanakie
Date/Time
EST
Wind Sea
Height
m
Swell Vis
km
Cloud Weather Temp
°C
Press
MSL
hPa
Rain since
9am
mm
Dir  Spd
kts
Gust
kts
Height
m
Period
s
Dir
30/08:00pm NNE 2 4 - - - - - - - 14.6 1008.6 3.2
30/07:30pm N 4 6 - - - - - - - 14.9 1008.9 2.4
30/07:00pm NNW 5 7 - - - - - - - 15.2 1008.7 1.6
30/06:30pm NW 8 11 - - - - - - - 16.2 1009.1 0.6
30/06:00pm N 3 4 - - - - - - Rain 16.9 1008.7 0.2
30/05:30pm NNW 7 11 - - - - - - - 17.6 1009.3 0.0
30/05:00pm N 4 8 - - - - - - - 18.5 1009.1 0.0
30/04:30pm NNE 4 8 - - - - - - - 17.9 1009.3 0.0
30/04:00pm N 6 10 - - - - - - - 18.9 1009.3 0.0
30/03:30pm NNE 7 11 - - - - - - - 18.6 1009.7 0.0
30/03:00pm NE 5 8 - - - - - - - 18.5 1010.0 0.0
30/02:30pm NNE 6 8 - - - - - - - 18.1 1010.5 0.0
30/02:00pm NNE 6 9 - - - - - - - 17.9 1010.7 0.0
30/01:30pm NNE 6 8 - - - - - - - 17.8 1011.3 0.0
30/01:00pm NNE 6 10 - - - - - - - 18.2 1011.9 0.0
30/12:30pm NNE 5 9 - - - - - - - 18.8 1012.5 0.0
30/12:00pm NNE 5 11 - - - - - - - 19.4 1013.2 0.0
30/11:30am N 7 12 - - - - - - - 19.4 1014.0 0.0
30/11:00am N 8 12 - - - - - - - 19.4 1014.7 0.0
30/10:30am N 9 13 - - - - - - - 18.9 1014.6 0.0
30/10:00am NNE 5 8 - - - - - - - 18.2 1014.5 0.0
30/09:30am N 6 12 - - - - - - - 19.0 1015.0 0.0
30/09:00am N 8 15 - - - - - - - 18.8 1015.6 0.2
30/08:30am NNW 13 24 - - - - - - - 18.9 1015.5 0.2
30/08:28am NNW 11 22 - - - - - - - 18.6 1015.5 0.2
30/08:00am N 7 11 - - - - - - - 17.4 1015.8 0.2
30/07:30am NNE 5 7 - - - - - - - 15.9 1015.9 0.2
30/07:00am NNE 4 9 - - - - - - - 15.4 1016.1 0.2
30/06:30am NE 4 6 - - - - - - - 15.0 1016.1 0.2
30/06:00am NNE 5 8 - - - - - - - 15.2 1016.0 0.2
30/05:30am NE 4 5 - - - - - - - 12.6 1015.9 0.2
30/05:00am ENE 5 7 - - - - - - - 12.3 1015.6 0.2
30/04:30am ENE 4 6 - - - - - - - 11.4 1015.8 0.2
30/04:00am ENE 4 5 - - - - - - - 10.9 1016.3 0.2
30/03:30am ENE 5 6 - - - - - - - 11.0 1016.6 0.2
30/03:00am ENE 4 6 - - - - - - - 9.8 1016.8 0.2
30/02:30am E 4 5 - - - - - - - 10.0 1017.3 0.2
30/02:00am E 5 6 - - - - - - - 9.6 1017.5 0.2
30/01:30am E 5 7 - - - - - - - 9.0 1017.9 0.2
30/01:00am E 4 5 - - - - - - - 9.2 1018.6 0.2
30/12:30am ENE 5 6 - - - - - - - 9.4 1019.0 0.2
30/12:00am NE 4 5 - - - - - - - 9.2 1019.2 0.2
 
Date/Time
EST
Wind Sea
Height
m
Swell Vis
km
Cloud Weather Temp
°C
Press
MSL
hPa
Rain since
9am
mm
Dir  Spd
kts
Gust
kts
Height
m
Period
s
Dir
29/11:30pm NE 4 5 - - - - - - - 10.1 1019.2 0.2
29/11:00pm ENE 5 7 - - - - - - - 9.8 1019.2 0.2
29/10:30pm NE 4 5 - - - - - - - 9.0 1019.5 0.2
29/10:00pm NNE 3 5 - - - - - - - 7.3 1019.8 0.2
29/09:30pm N 4 5 - - - - - - - 8.2 1020.0 0.2
29/09:00pm N 3 4 - - - - - - - 9.8 1020.0 0.2
29/08:30pm NNE 4 5 - - - - - - - 10.2 1020.4 0.2
29/08:00pm NNE 4 5 - - - - - - - 10.2 1020.4 0.2
29/07:30pm NE 3 5 - - - - - - - 9.7 1020.7 0.2
29/07:00pm NNE 3 4 - - - - - - - 10.7 1020.9 0.2
29/06:30pm NE 2 3 - - - - - - - 9.6 1020.9 0.2
29/06:00pm CALM 0 2 - - - - - - - 10.2 1021.0 0.2
29/05:30pm NNE 1 2 - - - - - - - 10.7 1020.8 0.2
29/05:00pm CALM 0 0 - - - - - - - 12.9 1020.9 0.2
29/04:30pm CALM 0 0 - - - - - - - 15.3 1020.8 0.2
29/04:00pm CALM 0 0 - - - - - - - 16.0 1021.1 0.2
29/03:30pm NE 3 4 - - - - - - - 16.7 1021.2 0.2
29/03:00pm ENE 3 5 - - - - - - - 17.3 1021.2 0.2
29/02:30pm NE 3 4 - - - - - - - 17.6 1021.2 0.2
29/02:00pm ENE 2 5 - - - - - - - 17.7 1021.4 0.2
29/01:30pm ENE 3 5 - - - - - - - 17.8 1021.6 0.2
29/01:00pm ENE 1 3 - - - - - - - 18.3 1022.1 0.2
29/12:30pm CALM 0 1 - - - - - - - 17.2 1022.5 0.2
29/12:00pm CALM 0 0 - - - - - - Recent precip. 16.6 1023.2 0.2
29/11:30am CALM 0 0 - - - - - - - 16.6 1023.8 0.0
29/11:00am CALM 0 0 - - - - - - - 15.6 1024.3 0.0
29/10:30am CALM 0 1 - - - - - - - 14.5 1024.4 0.0
29/10:00am CALM 0 2 - - - - - - - 13.7 1024.6 0.0
29/09:30am N 2 4 - - - - - - - 11.2 1024.5 0.0
29/09:00am CALM 0 0 - - - - - - - 9.5 1024.6 0.0
29/08:30am NNE 1 3 - - - - - - - 5.4 1024.5 0.0
29/08:00am CALM 0 0 - - - - - - - 3.5 1024.5 0.0
29/07:30am CALM 0 2 - - - - - - - 3.1 1024.4 0.0
29/07:00am CALM 0 0 - - - - - - - 4.3 1024.3 0.0
29/06:30am CALM 0 0 - - - - - - - 3.1 1024.1 0.0
29/06:00am CALM 0 0 - - - - - - - 3.6 1024.1 0.0
29/05:30am CALM 0 0 - - - - - - - 4.1 1024.1 0.0
29/05:00am CALM 0 0 - - - - - - - 5.7 1024.1 0.0
29/04:30am CALM 0 0 - - - - - - - 6.3 1024.1 0.0
29/04:00am ENE 3 4 - - - - - - - 7.0 1024.1 0.0
29/03:30am NNE 3 3 - - - - - - - 7.6 1024.2 0.0
29/03:00am NNE 3 4 - - - - - - - 6.3 1024.7 0.0
29/02:30am CALM 0 1 - - - - - - - 6.6 1024.8 0.0
29/02:00am N 2 3 - - - - - - - 7.0 1024.9 0.0
29/01:30am CALM 0 0 - - - - - - - 7.8 1024.8 0.0
29/01:00am SW 2 2 - - - - - - - 6.1 1025.0 0.0
29/12:30am SW 1 2 - - - - - - - 7.3 1025.2 0.0
29/12:00am SW 3 4 - - - - - - - 6.6 1025.4 0.0
 
Date/Time
EST
Wind Sea
Height
m
Swell Vis
km
Cloud Weather Temp
°C
Press
MSL
hPa
Rain since
9am
mm
Dir  Spd
kts
Gust
kts
Height
m
Period
s
Dir
28/11:30pm ENE 1 4 - - - - - - - 8.2 1025.3 0.0
28/11:00pm NE 4 5 - - - - - - - 10.2 1025.4 0.0
28/10:30pm NE 5 6 - - - - - - - 10.2 1025.5 0.0
28/10:00pm ENE 4 5 - - - - - - - 10.5 1025.6 0.0
28/09:30pm ENE 3 5 - - - - - - - 9.6 1025.7 0.0
28/09:00pm NE 2 3 - - - - - - - 10.0 1025.7 0.0
28/08:30pm NNE 3 4 - - - - - - - 10.9 1025.6 0.0
28/08:00pm NE 4 5 - - - - - - - 11.6 1025.5 0.0
28/07:30pm CALM 0 0 - - - - - - - 10.3 1025.6 0.0
28/07:00pm CALM 0 1 - - - - - - - 10.9 1025.5 0.0
28/06:30pm N 3 3 - - - - - - - 12.8 1025.4 0.0
28/06:00pm NNE 3 5 - - - - - - - 13.2 1025.3 0.0
28/05:30pm NNE 3 4 - - - - - - - 13.8 1025.1 0.0
28/05:00pm NW 2 4 - - - - - - - 15.1 1025.1 0.0
28/04:30pm NW 5 6 - - - - - - - 17.1 1025.1 0.0
28/04:00pm WNW 4 5 - - - - - - - 19.0 1025.2 0.0
28/03:30pm WNW 4 6 - - - - - - - 19.6 1025.2 0.0
28/03:00pm WNW 6 9 - - - - - - - 19.7 1025.2 0.0
28/02:30pm WNW 8 10 - - - - - - - 19.7 1025.0 0.0
28/02:00pm WNW 10 14 - - - - - - - 19.5 1024.8 0.0
28/01:30pm WNW 9 13 - - - - - - - 19.9 1024.9 0.0
28/01:00pm WNW 10 14 - - - - - - - 19.3 1025.0 0.0
28/12:30pm NW 11 14 - - - - - - - 19.0 1025.3 0.0
28/12:00pm NW 11 16 - - - - - - - 18.3 1025.5 0.0
28/11:30am NW 12 18 - - - - - - - 17.9 1025.9 0.0
28/11:00am NW 12 17 - - - - - - - 17.4 1026.2 0.0
28/10:30am NW 11 16 - - - - - - - 17.0 1026.2 0.0
28/10:00am NW 10 15 - - - - - - - 16.3 1026.1 0.0
28/09:30am NW 10 13 - - - - - - - 15.5 1026.1 0.0
28/09:00am NW 9 12 - - - - - - - 14.8 1026.1 0.0
28/08:30am NW 9 12 - - - - - - - 13.7 1025.8 0.0
28/08:00am WNW 8 11 - - - - - - - 12.6 1025.6 0.0
28/07:30am NW 8 11 - - - - - - - 11.9 1025.2 0.0
28/07:00am NW 8 11 - - - - - - - 11.8 1025.2 0.0
28/06:30am WNW 7 9 - - - - - - - 11.4 1025.1 0.0
28/06:00am NW 9 13 - - - - - - - 11.7 1024.8 0.0
28/05:30am NW 9 12 - - - - - - - 11.7 1024.6 0.0
28/05:00am NW 9 12 - - - - - - - 11.8 1024.5 0.0
28/04:30am WNW 11 14 - - - - - - - 11.8 1024.5 0.0
28/04:00am NW 12 17 - - - - - - - 11.7 1024.3 0.0
28/03:30am NW 11 14 - - - - - - - 11.4 1024.4 0.0
28/03:00am NW 10 13 - - - - - - - 11.0 1024.6 0.0
28/02:30am NW 10 13 - - - - - - - 11.0 1024.8 0.0
28/02:00am NW 9 12 - - - - - - - 10.7 1024.7 0.0
28/01:30am NW 9 11 - - - - - - - 10.6 1024.7 0.0
28/01:00am WNW 9 12 - - - - - - - 11.0 1024.7 0.0
28/12:30am NW 8 12 - - - - - - - 11.0 1024.7 0.0
28/12:00am NW 9 11 - - - - - - - 10.9 1024.8 0.0
 
Date/Time
EST
Wind Sea
Height
m
Swell Vis
km
Cloud Weather Temp
°C
Press
MSL
hPa
Rain since
9am
mm
Dir  Spd
kts
Gust
kts
Height
m
Period
s
Dir
27/11:30pm NW 4 8 - - - - - - - 8.8 1024.8 0.0
27/11:00pm W 2 3 - - - - - - - 6.7 1024.9 0.0
27/10:30pm WNW 2 4 - - - - - - - 6.7 1024.9 0.0
27/10:00pm W 2 2 - - - - - - - 6.2 1025.0 0.0
27/09:30pm WNW 3 3 - - - - - - - 6.4 1025.0 0.0
27/09:00pm WNW 2 2 - - - - - - - 7.2 1024.9 0.0
27/08:30pm WNW 2 2 - - - - - - - 7.0 1024.9 0.0

Other formats

Comma delimited format used in spreadsheet applications
http://www.bom.gov.au/fwo/IDV60701/IDV60701.94911.axf

JavaScript Object Notation format (JSON) in row-major order
http://www.bom.gov.au/fwo/IDV60701/IDV60701.94911.json

Data quality

Most of these data are generated automatically and are frequently updated. Quality checks on data are not normally performed. It is possible for incorrect values to appear. Refer to information at About Latest Weather Observations and please check the disclaimer before using these data.